createdAt,value
2018-05-12T00:00:05.727Z,44
2018-05-12T00:15:05.656Z,43
2018-05-12T00:30:05.127Z,43
2018-05-12T00:45:04.816Z,44
2018-05-12T01:00:04.769Z,44
2018-05-12T01:15:05.033Z,44
2018-05-12T01:30:05.110Z,43
2018-05-12T01:45:05.159Z,43
2018-05-12T02:00:04.645Z,42
2018-05-12T02:15:04.828Z,43
2018-05-12T02:30:04.578Z,42
2018-05-12T02:45:05.280Z,42
2018-05-12T03:00:04.508Z,43
2018-05-12T03:15:05.142Z,42
2018-05-12T03:30:05.257Z,43
2018-05-12T03:45:05.398Z,43
2018-05-12T04:00:05.348Z,43
2018-05-12T04:15:04.779Z,42
2018-05-12T04:30:04.810Z,44
2018-05-12T04:45:05.515Z,43
2018-05-12T05:00:04.582Z,43
2018-05-12T05:15:04.834Z,45
2018-05-12T05:30:04.564Z,45
2018-05-12T05:45:05.337Z,45
2018-05-12T06:00:04.931Z,45
2018-05-12T06:15:04.531Z,45
2018-05-12T06:30:04.940Z,47
2018-05-12T06:45:04.443Z,49
2018-05-12T07:00:05.419Z,48
2018-05-12T07:15:04.922Z,48
2018-05-12T07:30:05.057Z,48
2018-05-12T07:45:05.485Z,49
2018-05-12T08:00:04.746Z,48
2018-05-12T08:15:05.265Z,51
2018-05-12T08:30:04.611Z,52
2018-05-12T08:45:05.593Z,53
2018-05-12T09:00:05.395Z,50
2018-05-12T09:15:04.351Z,50
2018-05-12T09:30:04.670Z,51
2018-05-12T09:45:05.391Z,52
2018-05-12T10:00:05.222Z,53
2018-05-12T10:15:05.305Z,51
2018-05-12T10:30:05.342Z,52
2018-05-12T10:45:04.581Z,49
2018-05-12T11:00:04.675Z,52
2018-05-12T11:15:04.656Z,51
2018-05-12T11:30:04.406Z,48
2018-05-12T11:45:04.834Z,55
2018-05-12T12:00:04.401Z,53
2018-05-12T12:15:04.970Z,53
2018-05-12T12:30:05.146Z,50
2018-05-12T12:45:05.256Z,50
2018-05-12T13:00:04.913Z,51
2018-05-12T13:15:04.699Z,52
2018-05-12T13:30:04.463Z,52
2018-05-12T13:45:05.046Z,55
2018-05-12T14:00:04.883Z,49
2018-05-12T14:15:05.325Z,52
2018-05-12T14:30:05.300Z,53
2018-05-12T14:45:04.832Z,55
2018-05-12T15:00:04.948Z,56
2018-05-12T15:15:06.071Z,55
2018-05-12T15:30:04.836Z,53
2018-05-12T15:45:04.786Z,56
2018-05-12T16:00:05.369Z,59
2018-05-12T16:15:04.919Z,57
2018-05-12T16:30:04.638Z,59
2018-05-12T16:45:04.510Z,58
2018-05-12T17:00:04.440Z,58
2018-05-12T17:15:04.914Z,52
2018-05-12T17:30:04.633Z,53
2018-05-12T17:45:04.615Z,51
2018-05-12T18:00:05.086Z,53
2018-05-12T18:15:04.505Z,60
2018-05-12T18:30:04.568Z,55
2018-05-12T18:45:04.485Z,56
2018-05-12T19:00:04.505Z,56
2018-05-12T19:15:04.422Z,53
2018-05-12T19:30:05.277Z,52
2018-05-12T19:45:05.369Z,53
2018-05-12T20:00:04.538Z,51
2018-05-12T20:15:05.272Z,50
2018-05-12T20:30:05.004Z,48
2018-05-12T20:45:04.563Z,48
2018-05-12T21:00:04.631Z,49
2018-05-12T21:15:05.296Z,49
2018-05-12T21:30:05.127Z,49
2018-05-12T21:45:05.115Z,49
2018-05-12T22:00:05.116Z,48
2018-05-12T22:15:05.163Z,48
2018-05-12T22:30:04.565Z,45
2018-05-12T22:45:04.515Z,44
2018-05-12T23:00:05.140Z,45
2018-05-12T23:15:05.117Z,47
2018-05-12T23:30:05.639Z,46
2018-05-12T23:45:04.625Z,46
